KRHV 240258Z 33008KT 10SM SCT030 14/08 A3005